Terminal Aerodrome Forecast
Issued by NWS

Home | Current Version | Previous Version | Text Only | Print | Product List | Glossary On
Versions: 1 2 3 4 5 6 7 8 9 10 11 12 13 14 15 16 17 18 19 20
000
FTUS46 KPDT 270500
TAFPSC
TAF
KPSC 270531Z 2706/2806 36004KT 2SM BR OVC004
     FM270800 36003KT 1/2SM FG OVC002
     FM271900 29003KT 3SM BR BKN005
     FM280000 22005KT 5SM BR BKN015
     FM280300 24005KT P6SM SCT015 OVC040=

USA.gov is the U.S. government's official web portal to all federal, state and local government web resources and services.